sensor_id;sensor_type;location;lat;lon;timestamp;temperature;humidity
7046;DHT22;3564;53.326;10.356;2023-02-01T00:01:35;8.50;99.90
7046;DHT22;3564;53.326;10.356;2023-02-01T00:04:00;8.50;99.90
7046;DHT22;3564;53.326;10.356;2023-02-01T00:06:26;8.50;99.90
7046;DHT22;3564;53.326;10.356;2023-02-01T00:08:55;8.50;99.90
7046;DHT22;3564;53.326;10.356;2023-02-01T00:11:22;8.50;99.90
7046;DHT22;3564;53.326;10.356;2023-02-01T00:13:48;8.50;99.90
7046;DHT22;3564;53.326;10.356;2023-02-01T00:16:19;8.50;99.90
7046;DHT22;3564;53.326;10.356;2023-02-01T00:18:46;8.50;99.90
7046;DHT22;3564;53.326;10.356;2023-02-01T00:21:14;8.50;99.90
7046;DHT22;3564;53.326;10.356;2023-02-01T00:23:40;8.50;99.90
7046;DHT22;3564;53.326;10.356;2023-02-01T00:26:09;8.50;99.90
7046;DHT22;3564;53.326;10.356;2023-02-01T00:28:37;8.50;99.90
7046;DHT22;3564;53.326;10.356;2023-02-01T00:31:04;8.50;99.90
7046;DHT22;3564;53.326;10.356;2023-02-01T00:33:31;8.50;99.90
7046;DHT22;3564;53.326;10.356;2023-02-01T00:36:02;8.50;99.90
7046;DHT22;3564;53.326;10.356;2023-02-01T00:38:29;8.50;99.90
7046;DHT22;3564;53.326;10.356;2023-02-01T00:41:09;8.50;99.90
7046;DHT22;3564;53.326;10.356;2023-02-01T00:43:35;8.50;99.90
7046;DHT22;3564;53.326;10.356;2023-02-01T00:46:01;8.50;99.90
7046;DHT22;3564;53.326;10.356;2023-02-01T00:48:27;8.60;99.90
7046;DHT22;3564;53.326;10.356;2023-02-01T00:50:53;8.60;99.90
7046;DHT22;3564;53.326;10.356;2023-02-01T00:53:18;8.60;99.90
7046;DHT22;3564;53.326;10.356;2023-02-01T00:55:48;8.60;99.90
7046;DHT22;3564;53.326;10.356;2023-02-01T00:58:14;8.60;99.90
7046;DHT22;3564;53.326;10.356;2023-02-01T01:00:40;8.60;99.90
7046;DHT22;3564;53.326;10.356;2023-02-01T01:03:06;8.70;99.90
7046;DHT22;3564;53.326;10.356;2023-02-01T01:05:45;8.70;99.90
7046;DHT22;3564;53.326;10.356;2023-02-01T01:08:10;8.60;99.90
7046;DHT22;3564;53.326;10.356;2023-02-01T01:10:36;8.60;99.90
7046;DHT22;3564;53.326;10.356;2023-02-01T01:13:01;8.60;99.90
7046;DHT22;3564;53.326;10.356;2023-02-01T01:15:27;8.60;99.90
7046;DHT22;3564;53.326;10.356;2023-02-01T01:17:53;8.60;99.90
7046;DHT22;3564;53.326;10.356;2023-02-01T01:20:18;8.60;99.90
7046;DHT22;3564;53.326;10.356;2023-02-01T01:22:47;8.60;99.90
7046;DHT22;3564;53.326;10.356;2023-02-01T01:25:13;8.60;99.90
7046;DHT22;3564;53.326;10.356;2023-02-01T01:27:39;8.60;99.90
7046;DHT22;3564;53.326;10.356;2023-02-01T01:30:05;8.60;99.90
7046;DHT22;3564;53.326;10.356;2023-02-01T01:32:31;8.60;99.90
7046;DHT22;3564;53.326;10.356;2023-02-01T01:34:56;8.60;99.90
7046;DHT22;3564;53.326;10.356;2023-02-01T01:37:22;8.60;99.90
7046;DHT22;3564;53.326;10.356;2023-02-01T01:39:48;8.60;99.90
7046;DHT22;3564;53.326;10.356;2023-02-01T01:42:13;8.60;99.90
7046;DHT22;3564;53.326;10.356;2023-02-01T01:45:01;8.60;99.90
7046;DHT22;3564;53.326;10.356;2023-02-01T01:47:39;8.70;99.90
7046;DHT22;3564;53.326;10.356;2023-02-01T01:50:09;8.60;99.90
7046;DHT22;3564;53.326;10.356;2023-02-01T01:52:37;8.60;99.90
7046;DHT22;3564;53.326;10.356;2023-02-01T01:55:03;8.70;99.90
7046;DHT22;3564;53.326;10.356;2023-02-01T01:57:37;8.70;99.90
7046;DHT22;3564;53.326;10.356;2023-02-01T02:00:13;8.70;99.90
7046;DHT22;3564;53.326;10.356;2023-02-01T02:02:43;8.70;99.90
7046;DHT22;3564;53.326;10.356;2023-02-01T02:05:10;8.80;99.90
7046;DHT22;3564;53.326;10.356;2023-02-01T02:07:39;8.80;99.90
7046;DHT22;3564;53.326;10.356;2023-02-01T02:10:07;8.80;99.90
7046;DHT22;3564;53.326;10.356;2023-02-01T02:12:38;8.70;99.90
7046;DHT22;3564;53.326;10.356;2023-02-01T02:15:06;8.70;99.90
7046;DHT22;3564;53.326;10.356;2023-02-01T02:17:57;8.70;99.90
7046;DHT22;3564;53.326;10.356;2023-02-01T02:20:51;8.60;99.90
7046;DHT22;3564;53.326;10.356;2023-02-01T02:31:29;8.50;99.90
7046;DHT22;3564;53.326;10.356;2023-02-01T02:34:08;8.50;99.90
7046;DHT22;3564;53.326;10.356;2023-02-01T02:39:58;8.50;99.90
7046;DHT22;3564;53.326;10.356;2023-02-01T02:45:34;8.50;99.90
7046;DHT22;3564;53.326;10.356;2023-02-01T02:51:52;8.50;99.90
7046;DHT22;3564;53.326;10.356;2023-02-01T02:54:42;8.50;99.90
7046;DHT22;3564;53.326;10.356;2023-02-01T03:00:31;8.50;99.90
7046;DHT22;3564;53.326;10.356;2023-02-01T03:03:16;8.60;99.90
7046;DHT22;3564;53.326;10.356;2023-02-01T03:06:01;8.60;99.90
7046;DHT22;3564;53.326;10.356;2023-02-01T03:08:28;8.60;99.90
7046;DHT22;3564;53.326;10.356;2023-02-01T03:11:09;8.60;99.90
7046;DHT22;3564;53.326;10.356;2023-02-01T03:14:34;8.70;99.90
7046;DHT22;3564;53.326;10.356;2023-02-01T03:17:22;8.60;99.90
7046;DHT22;3564;53.326;10.356;2023-02-01T03:20:11;8.50;99.90
7046;DHT22;3564;53.326;10.356;2023-02-01T03:22:58;8.50;99.90
7046;DHT22;3564;53.326;10.356;2023-02-01T03:25:31;8.40;99.90
7046;DHT22;3564;53.326;10.356;2023-02-01T03:28:02;8.50;99.90
7046;DHT22;3564;53.326;10.356;2023-02-01T03:30:32;8.50;99.90
7046;DHT22;3564;53.326;10.356;2023-02-01T03:33:02;8.50;99.90
7046;DHT22;3564;53.326;10.356;2023-02-01T03:38:25;8.60;99.90
7046;DHT22;3564;53.326;10.356;2023-02-01T03:41:15;8.60;99.90
7046;DHT22;3564;53.326;10.356;2023-02-01T03:44:09;8.50;99.90
7046;DHT22;3564;53.326;10.356;2023-02-01T03:47:19;8.50;99.90
7046;DHT22;3564;53.326;10.356;2023-02-01T03:50:01;8.50;99.90
7046;DHT22;3564;53.326;10.356;2023-02-01T03:52:38;8.50;99.90
7046;DHT22;3564;53.326;10.356;2023-02-01T03:55:05;8.40;99.90
7046;DHT22;3564;53.326;10.356;2023-02-01T03:57:33;8.40;99.90
7046;DHT22;3564;53.326;10.356;2023-02-01T04:00:20;8.40;99.90
7046;DHT22;3564;53.326;10.356;2023-02-01T04:02:47;8.30;99.90
7046;DHT22;3564;53.326;10.356;2023-02-01T04:05:13;8.20;99.90
7046;DHT22;3564;53.326;10.356;2023-02-01T04:07:39;8.10;99.90
7046;DHT22;3564;53.326;10.356;2023-02-01T04:10:04;8.10;99.90
7046;DHT22;3564;53.326;10.356;2023-02-01T04:12:30;8.10;99.90
7046;DHT22;3564;53.326;10.356;2023-02-01T04:14:56;8.00;99.90
7046;DHT22;3564;53.326;10.356;2023-02-01T04:17:21;8.00;99.90
7046;DHT22;3564;53.326;10.356;2023-02-01T04:19:47;8.00;99.90
7046;DHT22;3564;53.326;10.356;2023-02-01T04:22:13;7.90;99.90
7046;DHT22;3564;53.326;10.356;2023-02-01T04:24:38;8.00;99.90
7046;DHT22;3564;53.326;10.356;2023-02-01T04:27:04;8.00;99.90
7046;DHT22;3564;53.326;10.356;2023-02-01T04:29:30;8.00;99.90
7046;DHT22;3564;53.326;10.356;2023-02-01T04:31:55;8.00;99.90
7046;DHT22;3564;53.326;10.356;2023-02-01T04:34:21;8.00;99.90
7046;DHT22;3564;53.326;10.356;2023-02-01T04:36:48;8.00;99.90
7046;DHT22;3564;53.326;10.356;2023-02-01T04:39:13;8.00;99.90
7046;DHT22;3564;53.326;10.356;2023-02-01T04:41:39;8.00;99.90
7046;DHT22;3564;53.326;10.356;2023-02-01T04:44:05;8.00;99.90
7046;DHT22;3564;53.326;10.356;2023-02-01T04:46:30;8.00;99.90
7046;DHT22;3564;53.326;10.356;2023-02-01T04:48:56;8.00;99.90
7046;DHT22;3564;53.326;10.356;2023-02-01T04:51:21;8.00;99.90
7046;DHT22;3564;53.326;10.356;2023-02-01T04:53:47;8.00;99.90
7046;DHT22;3564;53.326;10.356;2023-02-01T04:56:13;8.00;99.90
7046;DHT22;3564;53.326;10.356;2023-02-01T04:58:39;8.00;99.90
7046;DHT22;3564;53.326;10.356;2023-02-01T05:01:05;8.00;99.90
7046;DHT22;3564;53.326;10.356;2023-02-01T05:03:32;8.00;99.90
7046;DHT22;3564;53.326;10.356;2023-02-01T05:05:58;7.90;99.90
7046;DHT22;3564;53.326;10.356;2023-02-01T05:08:24;7.90;99.90
7046;DHT22;3564;53.326;10.356;2023-02-01T05:10:51;7.90;99.90
7046;DHT22;3564;53.326;10.356;2023-02-01T05:13:16;7.90;99.90
7046;DHT22;3564;53.326;10.356;2023-02-01T05:16:01;7.80;99.90
7046;DHT22;3564;53.326;10.356;2023-02-01T05:18:26;7.70;99.90
7046;DHT22;3564;53.326;10.356;2023-02-01T05:20:52;7.70;99.90
7046;DHT22;3564;53.326;10.356;2023-02-01T05:23:17;7.60;99.90
7046;DHT22;3564;53.326;10.356;2023-02-01T05:25:43;7.60;99.90
7046;DHT22;3564;53.326;10.356;2023-02-01T05:28:08;7.60;99.90
7046;DHT22;3564;53.326;10.356;2023-02-01T05:30:34;7.50;99.90
7046;DHT22;3564;53.326;10.356;2023-02-01T05:33:02;7.50;99.90
7046;DHT22;3564;53.326;10.356;2023-02-01T05:35:28;7.40;99.90
7046;DHT22;3564;53.326;10.356;2023-02-01T05:37:53;7.30;99.90
7046;DHT22;3564;53.326;10.356;2023-02-01T05:40:19;7.30;99.90
7046;DHT22;3564;53.326;10.356;2023-02-01T05:42:44;7.20;99.90
7046;DHT22;3564;53.326;10.356;2023-02-01T05:45:11;7.20;99.90
7046;DHT22;3564;53.326;10.356;2023-02-01T05:47:36;7.10;99.90
7046;DHT22;3564;53.326;10.356;2023-02-01T05:50:03;7.00;99.90
7046;DHT22;3564;53.326;10.356;2023-02-01T05:52:29;6.90;99.90
7046;DHT22;3564;53.326;10.356;2023-02-01T05:54:54;6.80;99.90
7046;DHT22;3564;53.326;10.356;2023-02-01T05:57:20;6.80;99.90
7046;DHT22;3564;53.326;10.356;2023-02-01T05:59:45;6.80;99.90
7046;DHT22;3564;53.326;10.356;2023-02-01T06:02:13;6.80;99.90
7046;DHT22;3564;53.326;10.356;2023-02-01T06:04:38;6.80;99.90
7046;DHT22;3564;53.326;10.356;2023-02-01T06:07:05;6.80;99.90
7046;DHT22;3564;53.326;10.356;2023-02-01T06:09:34;6.80;99.90
7046;DHT22;3564;53.326;10.356;2023-02-01T06:11:59;6.70;99.90
7046;DHT22;3564;53.326;10.356;2023-02-01T06:14:26;6.70;99.90
7046;DHT22;3564;53.326;10.356;2023-02-01T06:16:53;6.70;99.90
7046;DHT22;3564;53.326;10.356;2023-02-01T06:19:19;6.70;99.90
7046;DHT22;3564;53.326;10.356;2023-02-01T06:21:45;6.70;99.90
7046;DHT22;3564;53.326;10.356;2023-02-01T06:24:10;6.70;99.90
7046;DHT22;3564;53.326;10.356;2023-02-01T06:26:36;6.70;99.90
7046;DHT22;3564;53.326;10.356;2023-02-01T06:29:02;6.70;99.90
7046;DHT22;3564;53.326;10.356;2023-02-01T06:31:28;6.80;99.90
7046;DHT22;3564;53.326;10.356;2023-02-01T06:33:53;6.80;99.90
7046;DHT22;3564;53.326;10.356;2023-02-01T06:36:19;6.80;99.90
7046;DHT22;3564;53.326;10.356;2023-02-01T06:38:47;6.80;99.90
7046;DHT22;3564;53.326;10.356;2023-02-01T06:41:13;6.80;99.90
7046;DHT22;3564;53.326;10.356;2023-02-01T06:43:38;6.80;99.90
7046;DHT22;3564;53.326;10.356;2023-02-01T06:46:07;6.80;99.90
7046;DHT22;3564;53.326;10.356;2023-02-01T06:48:33;6.90;99.90
7046;DHT22;3564;53.326;10.356;2023-02-01T06:50:59;6.90;99.90
7046;DHT22;3564;53.326;10.356;2023-02-01T06:53:25;6.90;99.90
7046;DHT22;3564;53.326;10.356;2023-02-01T06:55:55;7.00;99.90
7046;DHT22;3564;53.326;10.356;2023-02-01T06:58:21;7.00;99.90
7046;DHT22;3564;53.326;10.356;2023-02-01T07:00:47;7.00;99.90
7046;DHT22;3564;53.326;10.356;2023-02-01T07:03:14;7.10;99.90
7046;DHT22;3564;53.326;10.356;2023-02-01T07:05:39;7.10;99.90
7046;DHT22;3564;53.326;10.356;2023-02-01T07:08:06;7.20;99.90
7046;DHT22;3564;53.326;10.356;2023-02-01T07:10:31;7.20;99.90
7046;DHT22;3564;53.326;10.356;2023-02-01T07:12:58;7.30;99.90
7046;DHT22;3564;53.326;10.356;2023-02-01T07:15:24;7.30;99.90
7046;DHT22;3564;53.326;10.356;2023-02-01T07:17:49;7.30;99.90
7046;DHT22;3564;53.326;10.356;2023-02-01T07:20:17;7.30;99.90
7046;DHT22;3564;53.326;10.356;2023-02-01T07:22:42;7.40;99.90
7046;DHT22;3564;53.326;10.356;2023-02-01T07:25:08;7.40;99.90
7046;DHT22;3564;53.326;10.356;2023-02-01T07:27:37;7.40;99.90
7046;DHT22;3564;53.326;10.356;2023-02-01T07:30:03;7.40;99.90
7046;DHT22;3564;53.326;10.356;2023-02-01T07:32:30;7.40;99.90
7046;DHT22;3564;53.326;10.356;2023-02-01T07:34:56;7.30;99.90
7046;DHT22;3564;53.326;10.356;2023-02-01T07:37:21;7.30;99.90
7046;DHT22;3564;53.326;10.356;2023-02-01T07:39:52;7.40;99.90
7046;DHT22;3564;53.326;10.356;2023-02-01T07:42:18;7.40;99.90
7046;DHT22;3564;53.326;10.356;2023-02-01T07:44:43;7.40;99.90
7046;DHT22;3564;53.326;10.356;2023-02-01T07:47:09;7.40;99.90
7046;DHT22;3564;53.326;10.356;2023-02-01T07:49:35;7.40;99.90
7046;DHT22;3564;53.326;10.356;2023-02-01T07:52:00;7.40;99.90
7046;DHT22;3564;53.326;10.356;2023-02-01T07:54:26;7.40;99.90
7046;DHT22;3564;53.326;10.356;2023-02-01T07:56:51;7.40;99.90
7046;DHT22;3564;53.326;10.356;2023-02-01T07:59:17;7.40;99.90
7046;DHT22;3564;53.326;10.356;2023-02-01T08:01:43;7.40;99.90
7046;DHT22;3564;53.326;10.356;2023-02-01T08:04:11;7.40;99.90
7046;DHT22;3564;53.326;10.356;2023-02-01T08:06:38;7.40;99.90
7046;DHT22;3564;53.326;10.356;2023-02-01T08:09:05;7.50;99.90
7046;DHT22;3564;53.326;10.356;2023-02-01T08:11:31;7.60;99.90
7046;DHT22;3564;53.326;10.356;2023-02-01T08:13:58;7.70;99.90
7046;DHT22;3564;53.326;10.356;2023-02-01T08:16:24;7.70;99.90
7046;DHT22;3564;53.326;10.356;2023-02-01T08:18:51;7.80;99.90
7046;DHT22;3564;53.326;10.356;2023-02-01T08:21:23;7.80;99.90
7046;DHT22;3564;53.326;10.356;2023-02-01T08:23:49;7.90;99.90
7046;DHT22;3564;53.326;10.356;2023-02-01T08:26:24;7.80;99.90
7046;DHT22;3564;53.326;10.356;2023-02-01T08:28:55;7.90;99.90
7046;DHT22;3564;53.326;10.356;2023-02-01T08:31:23;7.90;99.90
7046;DHT22;3564;53.326;10.356;2023-02-01T08:33:54;8.00;99.90
7046;DHT22;3564;53.326;10.356;2023-02-01T08:36:21;8.00;99.90
7046;DHT22;3564;53.326;10.356;2023-02-01T08:38:47;8.10;99.90
7046;DHT22;3564;53.326;10.356;2023-02-01T08:41:15;8.10;99.90
7046;DHT22;3564;53.326;10.356;2023-02-01T08:43:42;8.10;99.90
7046;DHT22;3564;53.326;10.356;2023-02-01T08:46:08;8.10;99.90
7046;DHT22;3564;53.326;10.356;2023-02-01T08:48:34;8.20;99.90
7046;DHT22;3564;53.326;10.356;2023-02-01T08:51:05;8.20;99.90
7046;DHT22;3564;53.326;10.356;2023-02-01T08:53:32;8.20;99.90
7046;DHT22;3564;53.326;10.356;2023-02-01T08:55:58;8.20;99.90
7046;DHT22;3564;53.326;10.356;2023-02-01T08:58:23;8.30;99.90
7046;DHT22;3564;53.326;10.356;2023-02-01T09:00:49;8.30;99.90
7046;DHT22;3564;53.326;10.356;2023-02-01T09:03:15;8.30;99.90
7046;DHT22;3564;53.326;10.356;2023-02-01T09:05:41;8.30;99.90
7046;DHT22;3564;53.326;10.356;2023-02-01T09:08:07;8.30;99.90
7046;DHT22;3564;53.326;10.356;2023-02-01T09:10:33;8.40;99.90
7046;DHT22;3564;53.326;10.356;2023-02-01T09:12:59;8.30;99.90
7046;DHT22;3564;53.326;10.356;2023-02-01T09:15:24;8.30;99.90
7046;DHT22;3564;53.326;10.356;2023-02-01T09:17:50;8.40;99.90
7046;DHT22;3564;53.326;10.356;2023-02-01T09:20:16;8.40;99.90
7046;DHT22;3564;53.326;10.356;2023-02-01T09:22:41;8.30;99.90
7046;DHT22;3564;53.326;10.356;2023-02-01T09:25:09;8.40;99.90
7046;DHT22;3564;53.326;10.356;2023-02-01T09:27:34;8.40;99.90
7046;DHT22;3564;53.326;10.356;2023-02-01T09:30:00;8.50;99.90
7046;DHT22;3564;53.326;10.356;2023-02-01T09:32:27;8.60;99.90
7046;DHT22;3564;53.326;10.356;2023-02-01T09:34:53;8.60;99.90
7046;DHT22;3564;53.326;10.356;2023-02-01T09:37:19;8.70;99.90
7046;DHT22;3564;53.326;10.356;2023-02-01T09:39:45;8.70;99.90
7046;DHT22;3564;53.326;10.356;2023-02-01T09:47:46;8.80;99.90
7046;DHT22;3564;53.326;10.356;2023-02-01T09:50:17;8.90;99.90
7046;DHT22;3564;53.326;10.356;2023-02-01T09:53:10;8.90;99.90
7046;DHT22;3564;53.326;10.356;2023-02-01T09:55:42;8.90;99.90
7046;DHT22;3564;53.326;10.356;2023-02-01T09:58:16;8.90;99.90
7046;DHT22;3564;53.326;10.356;2023-02-01T10:00:57;9.00;99.90
7046;DHT22;3564;53.326;10.356;2023-02-01T10:03:31;9.00;99.90
7046;DHT22;3564;53.326;10.356;2023-02-01T10:06:13;9.00;99.90
7046;DHT22;3564;53.326;10.356;2023-02-01T10:09:06;9.00;99.90
7046;DHT22;3564;53.326;10.356;2023-02-01T10:23:04;9.00;99.90
7046;DHT22;3564;53.326;10.356;2023-02-01T10:25:53;9.00;99.90
7046;DHT22;3564;53.326;10.356;2023-02-01T10:28:19;9.00;99.90
7046;DHT22;3564;53.326;10.356;2023-02-01T10:30:47;9.10;99.90
7046;DHT22;3564;53.326;10.356;2023-02-01T10:33:19;9.00;99.90
7046;DHT22;3564;53.326;10.356;2023-02-01T10:35:58;9.10;99.90
7046;DHT22;3564;53.326;10.356;2023-02-01T10:38:32;9.10;99.90
7046;DHT22;3564;53.326;10.356;2023-02-01T10:41:13;9.10;99.90
7046;DHT22;3564;53.326;10.356;2023-02-01T10:43:40;9.10;99.90
7046;DHT22;3564;53.326;10.356;2023-02-01T10:46:07;9.20;99.90
7046;DHT22;3564;53.326;10.356;2023-02-01T10:48:33;9.20;99.90
7046;DHT22;3564;53.326;10.356;2023-02-01T10:51:12;9.20;99.90
7046;DHT22;3564;53.326;10.356;2023-02-01T10:53:52;9.20;99.90
7046;DHT22;3564;53.326;10.356;2023-02-01T10:56:27;9.30;99.90
7046;DHT22;3564;53.326;10.356;2023-02-01T10:59:04;9.30;99.90
7046;DHT22;3564;53.326;10.356;2023-02-01T11:01:43;9.40;99.90
7046;DHT22;3564;53.326;10.356;2023-02-01T11:04:13;9.40;99.90
7046;DHT22;3564;53.326;10.356;2023-02-01T11:06:43;9.30;99.90
7046;DHT22;3564;53.326;10.356;2023-02-01T11:09:21;9.30;99.90
7046;DHT22;3564;53.326;10.356;2023-02-01T11:17:17;9.30;99.90
7046;DHT22;3564;53.326;10.356;2023-02-01T11:19:45;9.30;99.90
7046;DHT22;3564;53.326;10.356;2023-02-01T11:22:12;9.30;99.90
7046;DHT22;3564;53.326;10.356;2023-02-01T11:24:40;9.30;99.90
7046;DHT22;3564;53.326;10.356;2023-02-01T11:27:18;9.30;99.90
7046;DHT22;3564;53.326;10.356;2023-02-01T11:29:48;9.30;99.90
7046;DHT22;3564;53.326;10.356;2023-02-01T11:32:17;9.20;99.90
7046;DHT22;3564;53.326;10.356;2023-02-01T11:34:47;9.20;99.90
7046;DHT22;3564;53.326;10.356;2023-02-01T11:37:20;9.30;99.90
7046;DHT22;3564;53.326;10.356;2023-02-01T11:39:54;9.30;99.90
7046;DHT22;3564;53.326;10.356;2023-02-01T11:42:21;9.30;99.90
7046;DHT22;3564;53.326;10.356;2023-02-01T11:44:47;9.40;99.90
7046;DHT22;3564;53.326;10.356;2023-02-01T11:47:31;9.40;99.90
7046;DHT22;3564;53.326;10.356;2023-02-01T11:50:15;9.40;99.90
7046;DHT22;3564;53.326;10.356;2023-02-01T11:53:23;9.40;99.90
7046;DHT22;3564;53.326;10.356;2023-02-01T11:56:26;9.50;99.90
7046;DHT22;3564;53.326;10.356;2023-02-01T12:02:01;9.50;99.90
7046;DHT22;3564;53.326;10.356;2023-02-01T12:12:48;9.40;99.90
7046;DHT22;3564;53.326;10.356;2023-02-01T12:21:05;9.20;99.90
7046;DHT22;3564;53.326;10.356;2023-02-01T12:23:55;9.20;99.90
7046;DHT22;3564;53.326;10.356;2023-02-01T12:26:50;9.20;99.90
7046;DHT22;3564;53.326;10.356;2023-02-01T12:29:23;9.10;99.90
7046;DHT22;3564;53.326;10.356;2023-02-01T12:43:20;8.60;99.90
7046;DHT22;3564;53.326;10.356;2023-02-01T12:45:56;8.50;99.90
7046;DHT22;3564;53.326;10.356;2023-02-01T12:51:13;8.30;99.90
7046;DHT22;3564;53.326;10.356;2023-02-01T12:57:04;8.10;99.90
7046;DHT22;3564;53.326;10.356;2023-02-01T12:59:51;7.90;99.90
7046;DHT22;3564;53.326;10.356;2023-02-01T13:08:56;7.60;99.90
7046;DHT22;3564;53.326;10.356;2023-02-01T13:11:45;7.50;99.90
7046;DHT22;3564;53.326;10.356;2023-02-01T13:17:02;7.60;99.90
7046;DHT22;3564;53.326;10.356;2023-02-01T13:19:49;7.60;99.90
7046;DHT22;3564;53.326;10.356;2023-02-01T13:25:19;7.60;99.90
7046;DHT22;3564;53.326;10.356;2023-02-01T13:27:49;7.50;99.90
7046;DHT22;3564;53.326;10.356;2023-02-01T13:30:17;7.40;99.90
7046;DHT22;3564;53.326;10.356;2023-02-01T13:33:12;7.40;99.90
7046;DHT22;3564;53.326;10.356;2023-02-01T13:38:38;7.30;99.90
7046;DHT22;3564;53.326;10.356;2023-02-01T13:41:22;7.40;99.90
7046;DHT22;3564;53.326;10.356;2023-02-01T13:43:55;7.40;99.90
7046;DHT22;3564;53.326;10.356;2023-02-01T13:46:22;7.40;99.90
7046;DHT22;3564;53.326;10.356;2023-02-01T13:48:53;7.40;99.90
7046;DHT22;3564;53.326;10.356;2023-02-01T13:51:37;7.50;99.90
7046;DHT22;3564;53.326;10.356;2023-02-01T13:54:04;7.70;99.90
7046;DHT22;3564;53.326;10.356;2023-02-01T13:56:40;7.80;99.90
7046;DHT22;3564;53.326;10.356;2023-02-01T14:10:48;8.10;99.90
7046;DHT22;3564;53.326;10.356;2023-02-01T14:13:38;8.10;99.90
7046;DHT22;3564;53.326;10.356;2023-02-01T14:58:07;8.10;99.90
7046;DHT22;3564;53.326;10.356;2023-02-01T15:00:37;8.00;99.90
7046;DHT22;3564;53.326;10.356;2023-02-01T15:03:38;8.00;99.90
7046;DHT22;3564;53.326;10.356;2023-02-01T15:06:24;7.90;99.90
7046;DHT22;3564;53.326;10.356;2023-02-01T15:09:04;7.90;99.90
7046;DHT22;3564;53.326;10.356;2023-02-01T15:12:00;7.80;99.90
7046;DHT22;3564;53.326;10.356;2023-02-01T15:14:36;7.80;99.90
7046;DHT22;3564;53.326;10.356;2023-02-01T15:17:03;7.70;99.90
7046;DHT22;3564;53.326;10.356;2023-02-01T15:19:57;7.70;99.90
7046;DHT22;3564;53.326;10.356;2023-02-01T15:22:23;7.60;99.90
7046;DHT22;3564;53.326;10.356;2023-02-01T15:24:59;7.60;99.90
7046;DHT22;3564;53.326;10.356;2023-02-01T15:27:26;7.60;99.90
7046;DHT22;3564;53.326;10.356;2023-02-01T15:29:53;7.60;99.90
7046;DHT22;3564;53.326;10.356;2023-02-01T15:32:29;7.50;99.90
7046;DHT22;3564;53.326;10.356;2023-02-01T15:34:56;7.50;99.90
7046;DHT22;3564;53.326;10.356;2023-02-01T15:37:22;7.50;99.90
7046;DHT22;3564;53.326;10.356;2023-02-01T15:42:40;7.60;99.90
7046;DHT22;3564;53.326;10.356;2023-02-01T15:45:18;7.60;99.90
7046;DHT22;3564;53.326;10.356;2023-02-01T15:47:48;7.60;99.90
7046;DHT22;3564;53.326;10.356;2023-02-01T15:50:16;7.70;99.90
7046;DHT22;3564;53.326;10.356;2023-02-01T15:52:42;7.70;99.90
7046;DHT22;3564;53.326;10.356;2023-02-01T15:55:18;7.70;99.90
7046;DHT22;3564;53.326;10.356;2023-02-01T15:57:46;7.70;99.90
7046;DHT22;3564;53.326;10.356;2023-02-01T16:01:00;7.70;99.90
7046;DHT22;3564;53.326;10.356;2023-02-01T16:05:59;7.80;99.90
7046;DHT22;3564;53.326;10.356;2023-02-01T16:08:28;7.80;99.90
7046;DHT22;3564;53.326;10.356;2023-02-01T16:11:00;7.80;99.90
7046;DHT22;3564;53.326;10.356;2023-02-01T16:13:29;7.80;99.90
7046;DHT22;3564;53.326;10.356;2023-02-01T16:15:54;7.80;99.90
7046;DHT22;3564;53.326;10.356;2023-02-01T16:18:20;7.80;99.90
7046;DHT22;3564;53.326;10.356;2023-02-01T16:20:47;7.80;99.90
7046;DHT22;3564;53.326;10.356;2023-02-01T16:23:13;7.80;99.90
7046;DHT22;3564;53.326;10.356;2023-02-01T16:25:39;7.80;99.90
7046;DHT22;3564;53.326;10.356;2023-02-01T16:28:04;7.80;99.90
7046;DHT22;3564;53.326;10.356;2023-02-01T16:30:31;7.80;99.90
7046;DHT22;3564;53.326;10.356;2023-02-01T16:32:58;7.90;99.90
7046;DHT22;3564;53.326;10.356;2023-02-01T16:35:29;7.90;99.90
7046;DHT22;3564;53.326;10.356;2023-02-01T16:38:04;7.80;99.90
7046;DHT22;3564;53.326;10.356;2023-02-01T16:40:37;7.90;99.90
7046;DHT22;3564;53.326;10.356;2023-02-01T16:43:23;7.90;99.90
7046;DHT22;3564;53.326;10.356;2023-02-01T16:45:52;8.00;99.90
7046;DHT22;3564;53.326;10.356;2023-02-01T16:48:27;8.00;99.90
7046;DHT22;3564;53.326;10.356;2023-02-01T16:50:59;8.00;99.90
7046;DHT22;3564;53.326;10.356;2023-02-01T16:53:27;8.00;99.90
7046;DHT22;3564;53.326;10.356;2023-02-01T16:55:54;8.00;99.90
7046;DHT22;3564;53.326;10.356;2023-02-01T16:58:20;8.10;99.90
7046;DHT22;3564;53.326;10.356;2023-02-01T17:00:47;8.10;99.90
7046;DHT22;3564;53.326;10.356;2023-02-01T17:03:13;8.10;99.90
7046;DHT22;3564;53.326;10.356;2023-02-01T17:05:43;8.10;99.90
7046;DHT22;3564;53.326;10.356;2023-02-01T17:08:13;8.10;99.90
7046;DHT22;3564;53.326;10.356;2023-02-01T17:10:41;8.00;99.90
7046;DHT22;3564;53.326;10.356;2023-02-01T17:13:12;8.00;99.90
7046;DHT22;3564;53.326;10.356;2023-02-01T17:15:38;8.00;99.90
7046;DHT22;3564;53.326;10.356;2023-02-01T17:18:04;8.10;99.90
7046;DHT22;3564;53.326;10.356;2023-02-01T17:20:31;8.10;99.90
7046;DHT22;3564;53.326;10.356;2023-02-01T17:22:57;8.10;99.90
7046;DHT22;3564;53.326;10.356;2023-02-01T17:25:23;8.10;99.90
7046;DHT22;3564;53.326;10.356;2023-02-01T17:27:50;8.10;99.90
7046;DHT22;3564;53.326;10.356;2023-02-01T17:30:16;8.10;99.90
7046;DHT22;3564;53.326;10.356;2023-02-01T17:32:42;8.10;99.90
7046;DHT22;3564;53.326;10.356;2023-02-01T17:35:25;8.20;99.90
7046;DHT22;3564;53.326;10.356;2023-02-01T17:37:51;8.20;99.90
7046;DHT22;3564;53.326;10.356;2023-02-01T17:40:18;8.20;99.90
7046;DHT22;3564;53.326;10.356;2023-02-01T17:42:43;8.20;99.90
7046;DHT22;3564;53.326;10.356;2023-02-01T17:45:37;8.20;99.90
7046;DHT22;3564;53.326;10.356;2023-02-01T17:48:06;8.20;99.90
7046;DHT22;3564;53.326;10.356;2023-02-01T17:50:35;8.20;99.90
7046;DHT22;3564;53.326;10.356;2023-02-01T17:53:02;8.20;99.90
7046;DHT22;3564;53.326;10.356;2023-02-01T17:55:33;8.20;99.90
7046;DHT22;3564;53.326;10.356;2023-02-01T17:58:00;8.20;99.90
7046;DHT22;3564;53.326;10.356;2023-02-01T18:00:26;8.20;99.90
7046;DHT22;3564;53.326;10.356;2023-02-01T18:02:51;8.20;99.90
7046;DHT22;3564;53.326;10.356;2023-02-01T18:05:26;8.20;99.90
7046;DHT22;3564;53.326;10.356;2023-02-01T18:07:52;8.20;99.90
7046;DHT22;3564;53.326;10.356;2023-02-01T18:10:18;8.20;99.90
7046;DHT22;3564;53.326;10.356;2023-02-01T18:12:44;8.20;99.90
7046;DHT22;3564;53.326;10.356;2023-02-01T18:15:21;8.20;99.90
7046;DHT22;3564;53.326;10.356;2023-02-01T18:17:47;8.10;99.90
7046;DHT22;3564;53.326;10.356;2023-02-01T18:20:19;8.10;99.90
7046;DHT22;3564;53.326;10.356;2023-02-01T18:22:45;8.10;99.90
7046;DHT22;3564;53.326;10.356;2023-02-01T18:25:23;8.10;99.90
7046;DHT22;3564;53.326;10.356;2023-02-01T18:27:52;8.00;99.90
7046;DHT22;3564;53.326;10.356;2023-02-01T18:30:20;8.00;99.90
7046;DHT22;3564;53.326;10.356;2023-02-01T18:32:47;8.00;99.90
7046;DHT22;3564;53.326;10.356;2023-02-01T18:35:20;8.00;99.90
7046;DHT22;3564;53.326;10.356;2023-02-01T18:37:47;8.00;99.90
7046;DHT22;3564;53.326;10.356;2023-02-01T18:40:18;7.90;99.90
7046;DHT22;3564;53.326;10.356;2023-02-01T18:42:44;7.90;99.90
7046;DHT22;3564;53.326;10.356;2023-02-01T18:45:30;7.80;99.90
7046;DHT22;3564;53.326;10.356;2023-02-01T18:47:57;7.80;99.90
7046;DHT22;3564;53.326;10.356;2023-02-01T18:50:25;7.80;99.90
7046;DHT22;3564;53.326;10.356;2023-02-01T18:52:55;7.80;99.90
7046;DHT22;3564;53.326;10.356;2023-02-01T18:55:22;7.80;99.90
7046;DHT22;3564;53.326;10.356;2023-02-01T18:57:48;7.80;99.90
7046;DHT22;3564;53.326;10.356;2023-02-01T19:00:15;7.80;99.90